Tiempo atmosférico en la estación meteorológica de Peraleda Del Zaucejo, Badajoz (542 m.)



Fecha
DESCASC
Temp. máxima en grados centígrados (hora)
DESCASC
Temp. mínima en grados centígrados (hora)
DESCASC
Temp. media en grados centígrados
DESCASC
Racha de viento máxima en m/sg (hora)
DESCASC
Velocidad máxima media en intervalos de 10 minutos(hora)
DESCASC
Precipitaciones diarias en mm
DESCASC
Precipitaciones de 00:00 a 06:00 en mm
DESCASC
Precipitaciones de 06:00 a 12:00 en mm
DESCASC
Precipitaciones de 12:00 a 18:00 en mm
DESCASC
Precipitaciones de 18:00 a 24:00 en mm
DESCASC
16-01-2020 15.7 (15:40) 3.2 (08:40) 9.4 8.89 (20:40) 5.83 (14:00) 0.2 0 0.2 0 0
15-01-2020 14 (14:40) 1.7 (04:50) 7.9 10.28 (14:30) 6.11 (14:50) 0 0 0 0 0
14-01-2020 11.6 (15:30) -2.5 (06:20) 4.6 5.56 (22:00) 3.61 (21:40) 0 0 0 0 0
13-01-2020 12.3 (15:50) -3 (08:50) 4.7 5 (14:30) 2.78 (14:00) 0 0 0 0 0
12-01-2020 13.6 (15:40) -3.1 (-00:0) 5.3 5.28 (16:10) 3.33 (16:00) 0 0 0 0 0
11-01-2020 11.9 (15:50) 0 (00:00) 5.9 7.22 (11:20) 4.72 (11:20) 0 0 0 0 0
10-01-2020 11.9 (16:20) 1.5 (00:00) 6.7 9.44 (14:30) 5.83 (14:30) 0 0 0 0 0
09-01-2020 14.4 (16:20) -1.4 (-00:0) 6.5 6.11 (21:00) 3.61 (17:50) 0 0 0 0 0
08-01-2020 18.2 (16:10) -1.8 (-00:0) 8.2 3.61 (16:40) 2.5 (18:10) 0 0 0 0 0
07-01-2020 16.1 (16:40) -0.8 (-00:0) 7.7 3.33 (13:20) 2.22 (12:10) 0 0 0 0 0
06-01-2020 15.7 (16:50) -1.4 (-00:0) 7.1 2.22 (11:30) 1.39 (11:30) 0 0 0 0 0
05-01-2020 12.3 (16:20) -1.3 (-00:0) 5.5 5.56 (14:00) 3.61 (13:50) 0 0 0 0 0
04-01-2020 11.5 (16:40) 0.5 (00:00) 6 8.89 (15:30) 5.83 (15:30) 0 0 0 0 0
03-01-2020 11.5 (15:40) 1.8 (00:00) 6.6 5.56 (15:50) 2.78 (15:40) 0 0 0 0 0
02-01-2020 15.1 (16:30) -0.2 (00:00) 7.5 5.56 (15:10) 3.06 (15:10) 0.2 0 0.2 0 0
01-01-2020 16.2 (16:20) -0.4 (00:00) 7.9 1.67 (15:10) 1.11 (16:00) 0 0 0 0 0
31-12-2019 15 (16:20) -0.9 (-00:0) 7.1 3.61 (15:20) 2.78 (15:30) 0 0 0 0 0
30-12-2019 16.1 (16:30) -0.8 (-00:0) 7.7 3.89 (18:10) 3.06 (17:50) 0 0 0 0 0
29-12-2019 17.1 (16:20) 1.8 (00:00) 9.5 2.78 (17:10) 2.22 (16:50) 0 0 0 0 0
28-12-2019 19.7 (16:40) 3.3 (00:00) 11.5 3.33 (10:20) 2.22 (10:20) 0 0 0 0 0
27-12-2019 17.5 (15:40) 4.2 (00:00) 10.8 3.89 (17:20) 2.5 (17:20) 0 0 0 0 0
26-12-2019 15.9 (14:20) 4.5 (00:00) 10.2 4.17 (14:30) 2.78 (16:20) 0 0 0 0 0
25-12-2019 20.9 (15:50) 3.5 (00:00) 12.2 3.33 (15:20) 2.5 (16:10) 0 0 0 0 0
24-12-2019 18.7 (15:40) 3.2 (00:00) 11 2.5 (16:00) 1.39 (16:10) 0 0 0 0 0
23-12-2019 17.2 (16:40) 5 (00:00) 11.1 7.5 (03:00) 5 (03:00) 0 0 0 0 0
22-12-2019 15 (16:10) 9.9 (00:00) 12.4 15.28 (00:30) 8.61 (12:40) 0 0 0 0 0
21-12-2019 16.8 (15:10) 11.6 (00:00) 14.2 23.06 (16:20) 14.17 (16:20) 5.2 2 0.2 3 0
20-12-2019 15.5 (00:20) 14.1 (00:00) 14.8 21.39 (08:10) 11.39 (00:20) 20.6 13.2 2.4 1 4

Gráficas

Temp. máximas Temp. mínimas Temp. medias Precipitaciones Rachas de viento máximas Velocidades máximas media en intervalos de 10 minutos

Datos horarios

Fecha y hora oficial Temperatura (ºC) Velocidad del viento (km/h) Dirección del viento Racha (km/h) Dirección de racha Precipitación (mm) Presión (hPa) Tendencia (hPa) Humedad (%)
2020-01-18 23:00:00 10.7 26 Noroeste 49 Oeste 0 -- -- 85
2020-01-18 22:00:00 11.8 21 Oeste 39 Oeste 0 -- -- 90
2020-01-18 21:00:00 11.8 13 Oeste 32 Sudoeste 0 -- -- 94
2020-01-18 20:00:00 11.7 16 Sudoeste 26 Sudoeste 0 -- -- 96
2020-01-18 19:00:00 12 16 Sudoeste 23 Sur 0 -- -- 97
2020-01-18 18:00:00 12.5 11 Oeste 24 Oeste 0 -- -- 97
2020-01-18 17:00:00 11.5 10 Sur 20 Sudoeste 0.4 -- -- 98
2020-01-18 16:00:00 11 5 Sur 22 Sudoeste 0 -- -- 98
2020-01-18 15:00:00 10.4 8 Sur 17 Sur 0.6 -- -- 97
2020-01-18 14:00:00 10.1 9 Sudeste 27 Sudeste 0.8 -- -- 97
2020-01-18 13:00:00 10.1 7 Sur 16 Sur 1.4 -- -- 97
2020-01-18 12:00:00 9.5 6 Sur 27 Sur 1.4 -- -- 96
2020-01-18 11:00:00 9.1 17 Sur 31 Sudeste 1.2 -- -- 95
2020-01-18 10:00:00 9.1 13 Sur 31 Sur 0.6 -- -- 91
2020-01-18 09:00:00 9.5 13 Sur 23 Sur 0 -- -- 91
2020-01-18 08:00:00 8.8 6 Sur 12 Sur 1.4 -- -- 91
2020-01-18 07:00:00 8.9 4 Sudoeste 11 Sudoeste 0 -- -- 90
2020-01-18 06:00:00 7.5 4 Noroeste 6 Noroeste 0 -- -- 93
2020-01-18 05:00:00 7.2 0 Calma 4 Norte 0 -- -- 95
2020-01-18 04:00:00 7 3 Norte 5 Norte 0 -- -- 95
2020-01-18 03:00:00 6.9 0 Calma 5 Nordeste 0 -- -- 94
2020-01-18 02:00:00 6.8 0 Calma 6 Oeste 0 -- -- 94
2020-01-18 01:00:00 6.4 0 Calma 6 Oeste 0 -- -- 94
2020-01-18 00:00:00 6.2 0 Calma 5 Oeste 0 -- -- 93
2020-01-17 23:00:00 7.1 0 Calma 4 Oeste 0 -- -- 91
2020-01-17 22:00:00 7.7 4 Sudeste 6 Sudeste 0 -- -- 90
2020-01-17 21:00:00 7.6 0 Calma 5 Noroeste 0 -- -- 86
2020-01-17 20:00:00 8.5 2 Norte 5 Noroeste 0 -- -- 86
2020-01-17 19:00:00 8.8 3 Noroeste 6 Noroeste 0 -- -- 83
2020-01-17 18:00:00 11.1 4 Oeste 14 Noroeste 0 -- -- 71
2020-01-17 17:00:00 13.4 9 Noroeste 20 Noroeste 0 -- -- 63
2020-01-17 16:00:00 14.1 13 Noroeste 21 Noroeste 0 -- -- 59
2020-01-17 15:00:00 14.5 14 Noroeste 22 Noroeste 0 -- -- 64
2020-01-17 14:00:00 14.1 14 Noroeste 26 Oeste 0 -- -- 64
2020-01-17 13:00:00 13.4 10 Oeste 18 Noroeste 0 -- -- 68
2020-01-17 12:00:00 12.2 9 Oeste 16 Oeste 0 -- -- 74
2020-01-17 11:00:00 10.9 6 Oeste 13 Oeste 0 -- -- 85
2020-01-17 10:00:00 9.9 4 Noroeste 20 Oeste 0 -- -- 92
2020-01-17 09:00:00 9.7 15 Oeste 24 Oeste 0 -- -- 91
2020-01-17 08:00:00 9.3 11 Sudoeste 18 Sudoeste 0 -- -- 95
2020-01-17 07:00:00 9.6 8 Sudoeste 14 Oeste 0 -- -- 93
2020-01-17 06:00:00 10 0 Calma 13 Oeste 0 -- -- 91
2020-01-17 05:00:00 9.9 3 Sudoeste 9 Sudoeste 0 -- -- 90
2020-01-17 04:00:00 9.8 0 Calma 9 Sudoeste 0 -- -- 86
2020-01-17 03:00:00 10.5 5 Sur 22 Sudoeste 0 -- -- 79
2020-01-17 02:00:00 10.5 8 Sur 23 Sudoeste 0 -- -- 73
2020-01-17 01:00:00 10.3 6 Sudeste 21 Sudoeste 0 -- -- 65
2020-01-17 00:00:00 9.3 6 Oeste 18 Sudoeste 0 -- -- 68
2020-01-16 23:00:00 9.9 13 Sudoeste 29 Sudoeste 0 -- -- 64
2020-01-16 22:00:00 10.2 13 Sur 25 Sudoeste 0 -- -- 64
2020-01-16 21:00:00 10.3 8 Sur 32 Sudoeste 0 -- -- 61
2020-01-16 20:00:00 10.5 5 Sudeste 25 Sudoeste 0 -- -- 57
2020-01-16 19:00:00 11.7 11 Sur 23 Sudoeste 0 -- -- 53
2020-01-16 18:00:00 13.3 11 Sur 26 Sudoeste 0 -- -- 47
2020-01-16 17:00:00 14.9 17 Sudoeste 27 Sudoeste 0 -- -- 45
2020-01-16 16:00:00 15.6 19 Sudoeste 31 Sudoeste 0 -- -- 39
2020-01-16 15:00:00 15.2 16 Sudoeste 31 Sudoeste 0 -- -- 50
2020-01-16 14:00:00 14.6 21 Sudoeste 30 Sur 0 -- -- 49
2020-01-16 13:00:00 13.9 16 Sur 27 Sur 0 -- -- 55
2020-01-16 12:00:00 11.5 9 Sur 18 Sur 0 -- -- 81
2020-01-16 11:00:00 8 0 Calma 3 Oeste 0 -- -- 99
2020-01-16 10:00:00 6 0 Calma 4 Noroeste 0.2 -- -- 100
2020-01-16 09:00:00 3.3 2 Noroeste 3 Noroeste 0 -- -- 98
2020-01-16 08:00:00 4.2 0 Calma 5 Sudeste 0 -- -- 98
2020-01-16 07:00:00 6.6 0 Calma 5 Norte 0 -- -- 98
2020-01-16 06:00:00 5.3 0 Calma 6 Noroeste 0 -- -- 97
2020-01-16 05:00:00 7.4 0 Calma 7 Sudeste 0 -- -- 93
2020-01-16 04:00:00 8.5 5 Sur 11 Sudeste 0 -- -- 93
2020-01-16 03:00:00 9.7 7 Sur 18 Sur 0 -- -- 89
2020-01-16 02:00:00 9.7 4 Sur 11 Sudeste 0 -- -- 91
2020-01-16 01:00:00 10 7 Sudeste 12 Sudeste 0 -- -- 90
2020-01-16 00:00:00 10.4 3 Sudeste 9 Sudeste 0 -- -- 89
2020-01-15 23:00:00 10.4 4 Sudeste 24 Sur 0 -- -- 89
2020-01-15 22:00:00 10.3 15 Sur 22 Sur 0 -- -- 89
2020-01-15 21:00:00 10.3 7 Sudeste 12 Sur 0 -- -- 90
2020-01-15 20:00:00 10.5 6 Sudeste 16 Sur 0 -- -- 91
2020-01-15 19:00:00 10.8 6 Sur 20 Sudeste 0 -- -- 93
2020-01-15 18:00:00 11.4 14 Sudoeste 25 Sudoeste 0 -- -- 89
2020-01-15 17:00:00 12.7 16 Sur 27 Sur 0 -- -- 81
2020-01-15 16:00:00 13.8 18 Sudoeste 35 Sudoeste 0 -- -- 74
2020-01-15 15:00:00 13.8 20 Sudoeste 37 Sudoeste 0 -- -- 73
2020-01-15 14:00:00 12.4 18 Sur 34 Sudoeste 0 -- -- 76
2020-01-15 13:00:00 11.8 17 Sudoeste 31 Sudoeste 0 -- -- 78
2020-01-15 12:00:00 9.9 17 Sur 33 Sur 0 -- -- 82
2020-01-15 11:00:00 9 13 Sur 27 Sur 0 -- -- 81
2020-01-15 10:00:00 7.5 14 Sur 24 Sur 0 -- -- 83
2020-01-15 09:00:00 5.4 3 Sudoeste 12 Sur 0 -- -- 90
2020-01-15 08:00:00 6.7 8 Sudeste 19 Sur 0 -- -- 86
2020-01-15 07:00:00 5.5 7 Sur 17 Sudeste 0 -- -- 93
2020-01-15 06:00:00 2.4 3 Noroeste 11 Sur 0 -- -- 96
2020-01-15 05:00:00 1.7 3 Noroeste 6 Noroeste 0 -- -- 96
2020-01-15 04:00:00 2.1 5 Noroeste 7 Noroeste 0 -- -- 95
2020-01-15 03:00:00 4.2 0 Calma 10 Sudeste 0 -- -- 89
2020-01-15 02:00:00 5.1 2 Norte 16 Sur 0 -- -- 86
2020-01-15 01:00:00 4.8 0 Calma 8 Sudeste 0 -- -- 90
2020-01-15 00:00:00 6.4 4 Sur 13 Sur 0 -- -- 85
2020-01-14 23:00:00 7 4 Sudeste 19 Sur 0 -- -- 81
2020-01-14 22:00:00 7.8 10 Sur 20 Sur 0 -- -- 77
2020-01-14 21:00:00 8.7 11 Sur 17 Sur 0 -- -- 77
2020-01-14 20:00:00 9.3 10 Sur 18 Sur 0 -- -- 76
2020-01-14 19:00:00 10 8 Sur 15 Sur 0 -- -- 73
2020-01-14 18:00:00 10.6 6 Sur 15 Sur 0 -- -- 70
2020-01-14 17:00:00 11.1 6 Sur 13 Sudoeste 0 -- -- 66
2020-01-14 16:00:00 11.3 8 Sur 18 Sur 0 -- -- 62
2020-01-14 15:00:00 11.5 9 Sur 17 Sudoeste 0 -- -- 62
2020-01-14 14:00:00 11.3 7 Sur 12 Sur 0 -- -- 64
2020-01-14 13:00:00 9.3 5 Sur 16 Sur 0 -- -- 76
2020-01-14 12:00:00 5.4 0 Calma 10 Este 0 -- -- 97
2020-01-14 11:00:00 2.9 0 Calma 3 Noroeste 0 -- -- 100
2020-01-14 10:00:00 0.1 2 Noroeste 4 Oeste 0 -- -- 99
2020-01-14 09:00:00 -1 0 Calma 2 Noroeste 0 -- -- 99
2020-01-14 08:00:00 -1.2 0 Calma 2 Noroeste 0 -- -- 99
2020-01-14 07:00:00 -2 0 Calma 5 Noroeste 0 -- -- 98
2020-01-14 06:00:00 -1.5 0 Calma 4 Norte 0 -- -- 98
2020-01-14 05:00:00 -1.9 2 Noroeste 3 Noroeste 0 -- -- 97
2020-01-14 04:00:00 -1.8 3 Noroeste 4 Noroeste 0 -- -- 97
2020-01-14 03:00:00 -1.3 0 Calma 3 Oeste 0 -- -- 96
2020-01-14 02:00:00 -0.8 0 Calma 5 Noroeste 0 -- -- 96
2020-01-14 01:00:00 0.1 0 Calma 6 Noroeste 0 -- -- 95
2020-01-14 00:00:00 0.3 2 Sudoeste 4 Noroeste 0 -- -- 96
2020-01-13 23:00:00 0.8 0 Calma 6 Norte 0 -- -- 91
2020-01-13 22:00:00 2.4 3 Oeste 9 Noroeste 0 -- -- 92
2020-01-13 21:00:00 2.4 2 Sur 6 Oeste 0 -- -- 87
2020-01-13 20:00:00 4.3 4 Sudeste 7 Este 0 -- -- 82
2020-01-13 19:00:00 5.7 3 Noroeste 7 Oeste 0 -- -- 73
2020-01-13 18:00:00 9.8 7 Oeste 9 Oeste 0 -- -- 62
2020-01-13 17:00:00 11.6 5 Oeste 12 Noroeste 0 -- -- 54
2020-01-13 16:00:00 12.1 8 Noroeste 14 Noroeste 0 -- -- 53
2020-01-13 15:00:00 11.6 6 Noroeste 18 Sudoeste 0 -- -- 57
2020-01-13 14:00:00 11 10 Oeste 17 Sudoeste 0 -- -- 59
2020-01-13 13:00:00 9.6 3 Sur 10 Sur 0 -- -- 73
2020-01-13 12:00:00 6.6 0 Calma 6 Este 0 -- -- 82
2020-01-13 11:00:00 3.8 0 Calma 3 Noroeste 0 -- -- 95
2020-01-13 10:00:00 0.9 0 Calma 2 Noroeste 0 -- -- 99
2020-01-13 09:00:00 -2.7 0 Calma 4 Noroeste 0 -- -- 97
2020-01-13 08:00:00 -2.4 0 Calma 4 Noroeste 0 -- -- 97
2020-01-13 07:00:00 -2.4 0 Calma 2 Noroeste 0 -- -- 97
2020-01-13 06:00:00 -2.7 2 Noroeste 3 Noroeste 0 -- -- 97
2020-01-13 05:00:00 -2.4 2 Noroeste 3 Noroeste 0 -- -- 96
2020-01-13 04:00:00 -2.5 0 Calma 4 Noroeste 0 -- -- 94
2020-01-13 03:00:00 -1.4 3 Noroeste 4 Noroeste 0 -- -- 96
2020-01-13 02:00:00 -1.8 0 Calma 5 Noroeste 0 -- -- 93
2020-01-13 01:00:00 -1.3 3 Noroeste 4 Noroeste 0 -- -- 94
2020-01-13 00:00:00 -0.7 0 Calma 5 Oeste 0 -- -- 94
2020-01-12 23:00:00 -0.3 2 Noroeste 3 Oeste 0 -- -- 93
2020-01-12 22:00:00 0.3 2 Noroeste 5 Oeste 0 -- -- 91
2020-01-12 21:00:00 1.5 0 Calma 3 Oeste 0 -- -- 90
2020-01-12 20:00:00 3.5 3 Oeste 6 Oeste 0 -- -- 84
2020-01-12 19:00:00 5.1 5 Oeste 7 Noroeste 0 -- -- 81
2020-01-12 18:00:00 9.3 6 Noroeste 13 Norte 0 -- -- 68
2020-01-12 17:00:00 12.1 9 Norte 19 Norte 0 -- -- 58
2020-01-12 16:00:00 13.1 12 Norte 18 Norte 0 -- -- 56
2020-01-12 15:00:00 13.1 5 Oeste 10 Noroeste 0 -- -- 54
2020-01-12 14:00:00 12.4 4 Sudeste 8 Sur 0 -- -- 54
2020-01-12 13:00:00 10.5 3 Este 9 Este 0 -- -- 62
2020-01-12 12:00:00 8.3 4 Sudeste 6 Este 0 -- -- 71
2020-01-12 11:00:00 5.1 0 Calma 2 Nordeste 0 -- -- 86
2020-01-12 10:00:00 1.2 0 Calma 0 Calma 0 -- -- 99
2020-01-12 09:00:00 -2.8 0 Calma 2 Noroeste 0 -- -- 98
2020-01-12 08:00:00 -3.1 0 Calma 2 Noroeste 0 -- -- 96
2020-01-12 07:00:00 -2.9 0 Calma 0 Calma 0 -- -- 96
2020-01-12 06:00:00 -2.4 0 Calma 2 Noroeste 0 -- -- 96
2020-01-12 05:00:00 -2.1 0 Calma 3 Noroeste 0 -- -- 95
2020-01-12 04:00:00 -1.7 0 Calma 2 Este 0 -- -- 95
2020-01-12 03:00:00 -1.1 0 Calma 2 Sudeste 0 -- -- 96
2020-01-12 02:00:00 -0.4 0 Calma 3 Oeste 0 -- -- 95
2020-01-12 01:00:00 0.2 2 Noroeste 4 Noroeste 0 -- -- 95
2020-01-12 00:00:00 0 0 Calma 3 Noroeste 0 -- -- 92
2020-01-11 23:00:00 1.6 3 Noroeste 4 Noroeste 0 -- -- 94
2020-01-11 22:00:00 2 0 Calma 3 Noroeste 0 -- -- 87
2020-01-11 21:00:00 2.8 0 Calma 5 Noroeste 0 -- -- 86
2020-01-11 20:00:00 2.7 0 Calma 4 Oeste 0 -- -- 86
2020-01-11 19:00:00 5 0 Calma 10 Este 0 -- -- 78
2020-01-11 18:00:00 10.5 8 Este 16 Nordeste 0 -- -- 60
2020-01-11 17:00:00 11.9 9 Este 17 Este 0 -- -- 52
2020-01-11 16:00:00 11.9 8 Este 16 Este 0 -- -- 54
2020-01-11 15:00:00 11.5 7 Este 18 Este 0 -- -- 54
2020-01-11 14:00:00 10.7 8 Este 17 Este 0 -- -- 55
2020-01-11 13:00:00 8.7 5 Este 15 Nordeste 0 -- -- 64
2020-01-11 12:00:00 7.3 9 Nordeste 26 Este 0 -- -- 70
2020-01-11 11:00:00 5.9 12 Este 20 Este 0 -- -- 73
2020-01-11 10:00:00 4.4 6 Sudeste 13 Sudeste 0 -- -- 76
2020-01-11 09:00:00 0.7 3 Oeste 9 Sudeste 0 -- -- 90
2020-01-11 08:00:00 0.6 6 Este 9 Norte 0 -- -- 85
2020-01-11 07:00:00 0.5 0 Calma 9 Sudeste 0 -- -- 86
2020-01-11 06:00:00 1.8 3 Nordeste 12 Nordeste 0 -- -- 80
2020-01-11 05:00:00 3.6 9 Nordeste 16 Nordeste 0 -- -- 74
2020-01-11 04:00:00 3.9 6 Nordeste 15 Nordeste 0 -- -- 75
2020-01-11 03:00:00 1.4 4 Norte 11 Norte 0 -- -- 85
2020-01-11 02:00:00 1.8 0 Calma 6 Nordeste 0 -- -- 82
2020-01-11 01:00:00 1.8 3 Norte 6 Norte 0 -- -- 83
2020-01-11 00:00:00 1.5 2 Noroeste 4 Noroeste 0 -- -- 85
2020-01-10 23:00:00 2.3 0 Calma 4 Oeste 0 -- -- 81
2020-01-10 22:00:00 3.9 0 Calma 7 Nordeste 0 -- -- 76
2020-01-10 21:00:00 4.9 3 Norte 6 Noroeste 0 -- -- 73
2020-01-10 20:00:00 5 6 Norte 12 Norte 0 -- -- 79
2020-01-10 19:00:00 7.8 7 Norte 17 Norte 0 -- -- 72
2020-01-10 18:00:00 9.4 11 Norte 19 Norte 0 -- -- 73
2020-01-10 17:00:00 10.8 12 Norte 23 Nordeste 0 -- -- 68
2020-01-10 16:00:00 11.6 15 Nordeste 23 Nordeste 0 -- -- 60
2020-01-10 15:00:00 11.3 17 Este 34 Este 0 -- -- 64
2020-01-10 14:00:00 10.5 16 Este 25 Este 0 -- -- 71
2020-01-10 13:00:00 9.8 13 Este 22 Este 0 -- -- 72
2020-01-10 12:00:00 7.8 5 Este 15 Nordeste 0 -- -- 74
2020-01-10 11:00:00 6.9 8 Norte 13 Norte 0 -- -- 76
2020-01-10 10:00:00 5.3 4 Oeste 13 Oeste 0 -- -- 86
2020-01-10 09:00:00 3.7 9 Oeste 20 Oeste 0 -- -- 91
2020-01-10 08:00:00 2.7 5 Oeste 12 Oeste 0 -- -- 92
2020-01-10 07:00:00 4.5 8 Oeste 15 Oeste 0 -- -- 93
2020-01-10 06:00:00 6.3 2 Oeste 15 Oeste 0 -- -- 92
2020-01-10 05:00:00 7 9 Oeste 14 Oeste 0 -- -- 94
2020-01-10 04:00:00 8.1 8 Noroeste 20 Oeste 0 -- -- 90
2020-01-10 03:00:00 8.4 9 Noroeste 23 Oeste 0 -- -- 92
2020-01-10 02:00:00 9.5 13 Noroeste 24 Oeste 0 -- -- 93
2020-01-10 01:00:00 9.7 15 Oeste 26 Oeste 0 -- -- 94
2020-01-10 00:00:00 9.9 10 Noroeste 21 Oeste 0 -- -- 93
2020-01-09 23:00:00 9.1 6 Noroeste 14 Noroeste 0 -- -- 92
2020-01-09 22:00:00 8.4 2 Este 13 Oeste 0 -- -- 75
2020-01-09 21:00:00 8.7 8 Oeste 22 Oeste 0 -- -- 75
2020-01-09 20:00:00 8.5 0 Calma 13 Oeste 0 -- -- 78
2020-01-09 19:00:00 9.3 9 Oeste 14 Oeste 0 -- -- 76
2020-01-09 18:00:00 11.9 12 Oeste 18 Oeste 0 -- -- 65
2020-01-09 17:00:00 13.9 8 Sudoeste 13 Sudoeste 0 -- -- 60
2020-01-09 16:00:00 14.1 2 Noroeste 20 Noroeste 0 -- -- 54
2020-01-09 15:00:00 13.3 7 Oeste 18 Oeste 0 -- -- 56
2020-01-09 14:00:00 12.6 11 Oeste 15 Oeste 0 -- -- 60
2020-01-09 13:00:00 11.1 7 Sudoeste 17 Sudoeste 0 -- -- 68
2020-01-09 12:00:00 9.7 9 Sudoeste 15 Sur 0 -- -- 74
2020-01-09 11:00:00 6.3 4 Sudeste 7 Sudeste 0 -- -- 93
2020-01-09 10:00:00 2.2 0 Calma 2 Oeste 0 -- -- 100
2020-01-09 09:00:00 -0.9 0 Calma 2 Norte 0 -- -- 97
2020-01-09 08:00:00 -1.1 0 Calma 5 Noroeste 0 -- -- 98
2020-01-09 07:00:00 -0.9 3 Noroeste 4 Noroeste 0 -- -- 98
2020-01-09 06:00:00 -0.6 0 Calma 5 Oeste 0 -- -- 98
2020-01-09 05:00:00 -0.4 0 Calma 2 Noroeste 0 -- -- 97
2020-01-09 04:00:00 0 0 Calma 4 Noroeste 0 -- -- 97
2020-01-09 03:00:00 0.5 0 Calma 2 Noroeste 0 -- -- 98
2020-01-09 02:00:00 0.7 0 Calma 2 Oeste 0 -- -- 96
2020-01-09 01:00:00 1.7 0 Calma 3 Noroeste 0 -- -- 96
2020-01-09 00:00:00 2 2 Oeste 5 Noroeste 0 -- -- 95
2020-01-08 23:00:00 2.2 0 Calma 5 Noroeste 0 -- -- 92
2020-01-08 22:00:00 2.9 2 Noroeste 4 Noroeste 0 -- -- 87
2020-01-08 21:00:00 4.7 3 Noroeste 4 Noroeste 0 -- -- 81
2020-01-08 20:00:00 6.8 0 Calma 5 Oeste 0 -- -- 73
2020-01-08 19:00:00 11.1 0 Calma 12 Oeste 0 -- -- 55
2020-01-08 18:00:00 12.8 8 Sudoeste 11 Sudoeste 0 -- -- 51
2020-01-08 17:00:00 17.3 8 Sudoeste 13 Sudoeste 0 -- -- 40
2020-01-08 16:00:00 17.9 4 Sur 10 Sur 0 -- -- 39
2020-01-08 15:00:00 17.4 2 Sudeste 7 Sudeste 0 -- -- 42
2020-01-08 14:00:00 15.8 2 Este 6 Este 0 -- -- 49
2020-01-08 13:00:00 13.6 4 Sudeste 8 Sudeste 0 -- -- 57
2020-01-08 12:00:00 11.8 3 Este 5 Este 0 -- -- 68
2020-01-08 11:00:00 7.7 2 Este 3 Este 0 -- -- 85
2020-01-08 10:00:00 3 0 Calma 4 Noroeste 0 -- -- 100
2020-01-08 09:00:00 -1.6 4 Noroeste 5 Norte 0 -- -- 97
2020-01-08 08:00:00 -1.7 0 Calma 2 Noroeste 0 -- -- 97
2020-01-08 07:00:00 -1.6 0 Calma 2 Oeste 0 -- -- 96
2020-01-08 06:00:00 -1 0 Calma 2 Oeste 0 -- -- 96
2020-01-08 05:00:00 -0.7 0 Calma 4 Noroeste 0 -- -- 96
2020-01-08 04:00:00 -0.6 0 Calma 2 Oeste 0 -- -- 96
2020-01-08 03:00:00 -0.3 0 Calma 3 Oeste 0 -- -- 94
2020-01-08 02:00:00 0.5 0 Calma 2 Noroeste 0 -- -- 95
2020-01-08 01:00:00 1.1 0 Calma 3 Oeste 0 -- -- 96
2020-01-08 00:00:00 2 0 Calma 2 Oeste 0 -- -- 91
2020-01-07 23:00:00 2.7 0 Calma 4 Sudeste 0 -- -- 90
2020-01-07 22:00:00 2.9 0 Calma 4 Oeste 0 -- -- 90
2020-01-07 21:00:00 3.1 3 Oeste 4 Oeste 0 -- -- 91
2020-01-07 20:00:00 4.7 0 Calma 5 Norte 0 -- -- 87
2020-01-07 19:00:00 6.4 4 Noroeste 5 Noroeste 0 -- -- 83
2020-01-07 18:00:00 12 0 Calma 6 Sur 0 -- -- 64
2020-01-07 17:00:00 15.9 4 Sur 8 Sur 0 -- -- 56
2020-01-07 16:00:00 15.9 4 Sudeste 9 Sudeste 0 -- -- 57
2020-01-07 15:00:00 14.9 5 Sudeste 10 Sudeste 0 -- -- 60
2020-01-07 14:00:00 13.7 5 Este 12 Sudeste 0 -- -- 62
2020-01-07 13:00:00 12.1 5 Este 12 Este 0 -- -- 65
2020-01-07 12:00:00 10.1 7 Este 10 Este 0 -- -- 76
2020-01-07 11:00:00 8.1 3 Sudeste 5 Sudeste 0 -- -- 82
2020-01-07 10:00:00 2.8 0 Calma 2 Noroeste 0 -- -- 100
2020-01-07 09:00:00 -0.5 0 Calma 3 Oeste 0 -- -- 98
2020-01-07 08:00:00 -0.5 0 Calma 5 Noroeste 0 -- -- 97
2020-01-07 07:00:00 -0.6 0 Calma 5 Noroeste 0 -- -- 97
2020-01-07 06:00:00 -0.6 3 Noroeste 6 Noroeste 0 -- -- 96
2020-01-07 05:00:00 -0.3 0 Calma 6 Norte 0 -- -- 97
2020-01-07 04:00:00 -0.2 0 Calma 2 Noroeste 0 -- -- 96
2020-01-07 03:00:00 -0.2 2 Noroeste 3 Oeste 0 -- -- 94
2020-01-07 02:00:00 0.9 0 Calma 5 Noroeste 0 -- -- 96
2020-01-07 01:00:00 0.8 3 Noroeste 4 Oeste 0 -- -- 93
2020-01-07 00:00:00 2.1 0 Calma 2 Este 0 -- -- 90
2020-01-06 23:00:00 3.4 0 Calma 7 Noroeste 0 -- -- 87
2020-01-06 22:00:00 5.8 5 Noroeste 7 Noroeste 0 -- -- 82
2020-01-06 21:00:00 3.4 4 Oeste 5 Sudoeste 0 -- -- 94
2020-01-06 20:00:00 4.6 0 Calma 4 Noroeste 0 -- -- 87
2020-01-06 19:00:00 5.9 2 Oeste 4 Oeste 0 -- -- 85
2020-01-06 18:00:00 11.3 0 Calma 5 Sudeste 0 -- -- 65
2020-01-06 17:00:00 15.4 4 Sudeste 8 Sudeste 0 -- -- 54
2020-01-06 16:00:00 15.1 2 Este 6 Nordeste 0 -- -- 54
2020-01-06 15:00:00 14.1 3 Este 8 Nordeste 0 -- -- 59
2020-01-06 14:00:00 12.8 4 Este 8 Este 0 -- -- 64
2020-01-06 13:00:00 11 2 Este 6 Este 0 -- -- 71
2020-01-06 12:00:00 8.4 4 Este 8 Este 0 -- -- 82
2020-01-06 11:00:00 5.5 3 Este 5 Sudeste 0 -- -- 93
2020-01-06 10:00:00 1.7 0 Calma 3 Noroeste 0 -- -- 99